sensor_id;sensor_type;location;lat;lon;timestamp;pressure;altitude;pressure_sealevel;temperature;humidity
38880;BME280;25887;30.194;-97.880;2022-08-19T00:01:38;98110.78;;;29.33;48.29
38880;BME280;25887;30.194;-97.880;2022-08-19T00:04:06;98109.94;;;29.33;48.07
38880;BME280;25887;30.194;-97.880;2022-08-19T00:06:33;98120.41;;;29.34;48.08
38880;BME280;25887;30.194;-97.880;2022-08-19T00:08:59;98116.19;;;29.32;47.93
38880;BME280;25887;30.194;-97.880;2022-08-19T00:11:27;98117.03;;;29.32;48.50
38880;BME280;25887;30.194;-97.880;2022-08-19T00:13:54;98118.84;;;29.32;48.64
38880;BME280;25887;30.194;-97.880;2022-08-19T00:16:37;98131.00;;;29.34;48.08
38880;BME280;25887;30.194;-97.880;2022-08-19T00:19:12;98131.94;;;29.33;48.29
38880;BME280;25887;30.194;-97.880;2022-08-19T00:21:38;98137.22;;;29.33;48.48
38880;BME280;25887;30.194;-97.880;2022-08-19T00:24:12;98134.72;;;29.32;48.64
38880;BME280;25887;30.194;-97.880;2022-08-19T00:26:39;98136.66;;;29.30;48.53
38880;BME280;25887;30.194;-97.880;2022-08-19T00:29:06;98141.09;;;29.29;48.47
38880;BME280;25887;30.194;-97.880;2022-08-19T00:31:31;98141.09;;;29.29;48.57
38880;BME280;25887;30.194;-97.880;2022-08-19T00:33:57;98152.53;;;29.30;48.53
38880;BME280;25887;30.194;-97.880;2022-08-19T00:36:23;98163.97;;;29.30;48.22
38880;BME280;25887;30.194;-97.880;2022-08-19T00:38:49;98165.75;;;29.30;48.18
38880;BME280;25887;30.194;-97.880;2022-08-19T00:41:17;98170.22;;;29.29;48.37
38880;BME280;25887;30.194;-97.880;2022-08-19T00:43:56;98165.88;;;29.28;48.86
38880;BME280;25887;30.194;-97.880;2022-08-19T00:46:21;98177.44;;;29.27;48.44
38880;BME280;25887;30.194;-97.880;2022-08-19T00:49:08;98194.28;;;29.26;48.66
38880;BME280;25887;30.194;-97.880;2022-08-19T00:51:45;98206.78;;;29.24;48.59
38880;BME280;25887;30.194;-97.880;2022-08-19T00:54:12;98215.69;;;29.23;48.57
38880;BME280;25887;30.194;-97.880;2022-08-19T00:56:38;98216.66;;;29.22;48.91
38880;BME280;25887;30.194;-97.880;2022-08-19T00:59:04;98222.91;;;29.21;49.05
38880;BME280;25887;30.194;-97.880;2022-08-19T01:01:38;98231.06;;;29.18;48.97
38880;BME280;25887;30.194;-97.880;2022-08-19T01:04:05;98233.97;;;29.15;49.13
38880;BME280;25887;30.194;-97.880;2022-08-19T01:06:40;98237.69;;;29.12;48.91
38880;BME280;25887;30.194;-97.880;2022-08-19T01:09:09;98237.84;;;29.11;48.82
38880;BME280;25887;30.194;-97.880;2022-08-19T01:11:36;98237.84;;;29.11;48.98
38880;BME280;25887;30.194;-97.880;2022-08-19T01:14:04;98243.34;;;29.08;48.95
38880;BME280;25887;30.194;-97.880;2022-08-19T01:16:31;98249.47;;;29.08;49.25
38880;BME280;25887;30.194;-97.880;2022-08-19T01:18:57;98250.44;;;29.07;49.01
38880;BME280;25887;30.194;-97.880;2022-08-19T01:21:34;98257.53;;;29.07;48.88
38880;BME280;25887;30.194;-97.880;2022-08-19T01:24:20;98262.94;;;29.05;49.00
38880;BME280;25887;30.194;-97.880;2022-08-19T01:26:46;98266.69;;;29.03;49.37
38880;BME280;25887;30.194;-97.880;2022-08-19T01:29:29;98273.03;;;29.00;49.51
38880;BME280;25887;30.194;-97.880;2022-08-19T01:31:55;98279.41;;;28.98;49.18
38880;BME280;25887;30.194;-97.880;2022-08-19T01:34:21;98282.19;;;28.96;49.35
38880;BME280;25887;30.194;-97.880;2022-08-19T01:36:47;98283.03;;;28.97;49.37
38880;BME280;25887;30.194;-97.880;2022-08-19T01:39:18;98278.69;;;28.96;49.12
38880;BME280;25887;30.194;-97.880;2022-08-19T01:41:45;98283.97;;;28.96;49.66
38880;BME280;25887;30.194;-97.880;2022-08-19T01:44:11;98284.06;;;28.94;49.53
38880;BME280;25887;30.194;-97.880;2022-08-19T01:46:37;98281.44;;;28.94;49.26
38880;BME280;25887;30.194;-97.880;2022-08-19T01:49:03;98281.56;;;28.93;49.41
38880;BME280;25887;30.194;-97.880;2022-08-19T01:51:29;98285.16;;;28.92;49.47
38880;BME280;25887;30.194;-97.880;2022-08-19T01:53:55;98282.53;;;28.92;49.77
38880;BME280;25887;30.194;-97.880;2022-08-19T01:56:21;98291.50;;;28.89;49.69
38880;BME280;25887;30.194;-97.880;2022-08-19T01:58:53;98294.28;;;28.88;49.40
38880;BME280;25887;30.194;-97.880;2022-08-19T02:01:19;98297.84;;;28.86;49.62
38880;BME280;25887;30.194;-97.880;2022-08-19T02:03:45;98297.84;;;28.86;49.88
38880;BME280;25887;30.194;-97.880;2022-08-19T02:06:13;98309.41;;;28.85;49.67
38880;BME280;25887;30.194;-97.880;2022-08-19T02:08:39;98312.88;;;28.86;49.85
38880;BME280;25887;30.194;-97.880;2022-08-19T02:11:05;98314.69;;;28.85;49.79
38880;BME280;25887;30.194;-97.880;2022-08-19T02:13:32;98314.81;;;28.84;49.59
38880;BME280;25887;30.194;-97.880;2022-08-19T02:15:58;98317.56;;;28.82;49.71
38880;BME280;25887;30.194;-97.880;2022-08-19T02:18:24;98321.19;;;28.81;49.85
38880;BME280;25887;30.194;-97.880;2022-08-19T02:20:51;98315.88;;;28.81;49.98
38880;BME280;25887;30.194;-97.880;2022-08-19T02:23:17;98322.88;;;28.82;49.76
38880;BME280;25887;30.194;-97.880;2022-08-19T02:25:44;98315.88;;;28.81;49.78
38880;BME280;25887;30.194;-97.880;2022-08-19T02:28:10;98326.47;;;28.81;50.11
38880;BME280;25887;30.194;-97.880;2022-08-19T02:33:31;98351.22;;;28.80;49.89
38880;BME280;25887;30.194;-97.880;2022-08-19T02:35:57;98368.06;;;28.79;49.99
38880;BME280;25887;30.194;-97.880;2022-08-19T02:38:22;98380.41;;;28.79;50.84
38880;BME280;25887;30.194;-97.880;2022-08-19T02:40:56;98377.16;;;28.75;50.75
38880;BME280;25887;30.194;-97.880;2022-08-19T02:43:22;98383.63;;;28.71;50.66
38880;BME280;25887;30.194;-97.880;2022-08-19T02:45:48;98401.66;;;28.66;50.95
38880;BME280;25887;30.194;-97.880;2022-08-19T02:48:17;98369.28;;;28.63;50.89
38880;BME280;25887;30.194;-97.880;2022-08-19T02:50:44;98398.72;;;28.58;50.97
38880;BME280;25887;30.194;-97.880;2022-08-19T02:53:10;98373.44;;;28.54;50.65
38880;BME280;25887;30.194;-97.880;2022-08-19T02:55:43;98389.56;;;28.51;50.64
38880;BME280;25887;30.194;-97.880;2022-08-19T02:58:09;98389.66;;;28.49;50.89
38880;BME280;25887;30.194;-97.880;2022-08-19T03:00:34;98393.28;;;28.48;50.50
38880;BME280;25887;30.194;-97.880;2022-08-19T03:03:00;98392.50;;;28.46;51.01
38880;BME280;25887;30.194;-97.880;2022-08-19T03:05:26;98388.31;;;28.44;50.46
38880;BME280;25887;30.194;-97.880;2022-08-19T03:07:52;98378.91;;;28.40;50.91
38880;BME280;25887;30.194;-97.880;2022-08-19T03:10:18;98411.44;;;28.40;50.81
38880;BME280;25887;30.194;-97.880;2022-08-19T03:12:47;98415.91;;;28.40;50.46
38880;BME280;25887;30.194;-97.880;2022-08-19T03:15:12;98408.94;;;28.39;50.48
38880;BME280;25887;30.194;-97.880;2022-08-19T03:17:38;98413.38;;;28.38;50.95
38880;BME280;25887;30.194;-97.880;2022-08-19T03:20:04;98415.19;;;28.38;50.84
38880;BME280;25887;30.194;-97.880;2022-08-19T03:22:30;98411.69;;;28.37;50.77
38880;BME280;25887;30.194;-97.880;2022-08-19T03:24:56;98406.41;;;28.37;51.13
38880;BME280;25887;30.194;-97.880;2022-08-19T03:27:22;98428.38;;;28.38;50.84
38880;BME280;25887;30.194;-97.880;2022-08-19T03:29:47;98419.72;;;28.36;50.66
38880;BME280;25887;30.194;-97.880;2022-08-19T03:32:13;98418.88;;;28.35;50.97
38880;BME280;25887;30.194;-97.880;2022-08-19T03:34:39;98423.34;;;28.35;50.61
38880;BME280;25887;30.194;-97.880;2022-08-19T03:37:09;98427.66;;;28.36;51.07
38880;BME280;25887;30.194;-97.880;2022-08-19T03:39:36;98436.53;;;28.35;50.97
38880;BME280;25887;30.194;-97.880;2022-08-19T03:42:03;98435.59;;;28.36;50.72
38880;BME280;25887;30.194;-97.880;2022-08-19T03:44:29;98423.34;;;28.35;50.65
38880;BME280;25887;30.194;-97.880;2022-08-19T03:46:56;98415.41;;;28.35;51.15
38880;BME280;25887;30.194;-97.880;2022-08-19T03:49:23;98405.78;;;28.34;50.71
38880;BME280;25887;30.194;-97.880;2022-08-19T03:51:49;98420.81;;;28.33;50.76
38880;BME280;25887;30.194;-97.880;2022-08-19T03:54:16;98421.66;;;28.34;50.93
38880;BME280;25887;30.194;-97.880;2022-08-19T03:59:35;98411.28;;;28.30;50.85
38880;BME280;25887;30.194;-97.880;2022-08-19T04:02:02;98420.16;;;28.29;51.35
38880;BME280;25887;30.194;-97.880;2022-08-19T04:04:28;98422.81;;;28.29;50.94
38880;BME280;25887;30.194;-97.880;2022-08-19T04:06:55;98429.84;;;28.29;51.17
38880;BME280;25887;30.194;-97.880;2022-08-19T04:09:20;98411.47;;;28.27;51.23
38880;BME280;25887;30.194;-97.880;2022-08-19T04:11:47;98407.16;;;28.26;51.23
38880;BME280;25887;30.194;-97.880;2022-08-19T04:14:15;98402.00;;;28.25;51.29
38880;BME280;25887;30.194;-97.880;2022-08-19T04:16:41;98403.75;;;28.24;51.23
38880;BME280;25887;30.194;-97.880;2022-08-19T04:19:29;98402.91;;;28.24;51.05
38880;BME280;25887;30.194;-97.880;2022-08-19T04:21:55;98399.44;;;28.23;51.49
38880;BME280;25887;30.194;-97.880;2022-08-19T04:24:21;98386.22;;;28.23;51.40
38880;BME280;25887;30.194;-97.880;2022-08-19T04:26:47;98367.84;;;28.22;51.36
38880;BME280;25887;30.194;-97.880;2022-08-19T04:29:16;98352.94;;;28.21;51.03
38880;BME280;25887;30.194;-97.880;2022-08-19T04:31:44;98367.97;;;28.20;51.00
38880;BME280;25887;30.194;-97.880;2022-08-19T04:34:11;98366.28;;;28.19;51.32
38880;BME280;25887;30.194;-97.880;2022-08-19T04:36:38;98362.91;;;28.17;51.22
38880;BME280;25887;30.194;-97.880;2022-08-19T04:39:09;98367.31;;;28.17;51.52
38880;BME280;25887;30.194;-97.880;2022-08-19T04:41:35;98364.78;;;28.15;51.49
38880;BME280;25887;30.194;-97.880;2022-08-19T04:44:19;98370.19;;;28.14;51.38
38880;BME280;25887;30.194;-97.880;2022-08-19T04:46:46;98371.16;;;28.13;51.57
38880;BME280;25887;30.194;-97.880;2022-08-19T04:49:13;98374.75;;;28.12;51.20
38880;BME280;25887;30.194;-97.880;2022-08-19T04:51:40;98375.59;;;28.12;51.48
38880;BME280;25887;30.194;-97.880;2022-08-19T04:54:08;98372.22;;;28.10;51.27
38880;BME280;25887;30.194;-97.880;2022-08-19T04:56:34;98378.44;;;28.09;51.22
38880;BME280;25887;30.194;-97.880;2022-08-19T04:59:00;98379.41;;;28.08;51.33
38880;BME280;25887;30.194;-97.880;2022-08-19T05:01:30;98382.16;;;28.07;51.80
38880;BME280;25887;30.194;-97.880;2022-08-19T05:04:09;98371.69;;;28.05;51.71
38880;BME280;25887;30.194;-97.880;2022-08-19T05:06:35;98379.75;;;28.03;51.88
38880;BME280;25887;30.194;-97.880;2022-08-19T05:09:03;98381.53;;;28.03;51.42
38880;BME280;25887;30.194;-97.880;2022-08-19T05:11:30;98377.22;;;28.02;51.87
38880;BME280;25887;30.194;-97.880;2022-08-19T05:13:56;98372.84;;;28.01;51.87
38880;BME280;25887;30.194;-97.880;2022-08-19T05:16:24;98372.84;;;28.01;51.79
38880;BME280;25887;30.194;-97.880;2022-08-19T05:18:51;98380.78;;;28.01;51.79
38880;BME280;25887;30.194;-97.880;2022-08-19T05:21:35;98371.16;;;28.00;51.84
38880;BME280;25887;30.194;-97.880;2022-08-19T05:24:20;98380.91;;;27.99;51.64
38880;BME280;25887;30.194;-97.880;2022-08-19T05:26:47;98372.13;;;27.99;51.68
38880;BME280;25887;30.194;-97.880;2022-08-19T05:29:14;98366.13;;;27.97;51.59
38880;BME280;25887;30.194;-97.880;2022-08-19T05:31:41;98366.34;;;27.94;51.94
38880;BME280;25887;30.194;-97.880;2022-08-19T05:34:06;98368.47;;;27.89;51.75
38880;BME280;25887;30.194;-97.880;2022-08-19T05:36:37;98372.06;;;27.88;52.17
38880;BME280;25887;30.194;-97.880;2022-08-19T05:39:10;98368.66;;;27.86;51.74
38880;BME280;25887;30.194;-97.880;2022-08-19T05:41:43;98372.25;;;27.85;52.11
38880;BME280;25887;30.194;-97.880;2022-08-19T05:44:09;98377.53;;;27.85;52.12
38880;BME280;25887;30.194;-97.880;2022-08-19T05:46:36;98375.00;;;27.83;51.63
38880;BME280;25887;30.194;-97.880;2022-08-19T05:49:32;98383.78;;;27.84;52.01
38880;BME280;25887;30.194;-97.880;2022-08-19T05:51:58;98386.41;;;27.84;52.10
38880;BME280;25887;30.194;-97.880;2022-08-19T05:54:24;98390.84;;;27.83;51.86
38880;BME280;25887;30.194;-97.880;2022-08-19T05:56:51;98389.16;;;27.82;52.07
38880;BME280;25887;30.194;-97.880;2022-08-19T05:59:17;98384.00;;;27.81;52.11
38880;BME280;25887;30.194;-97.880;2022-08-19T06:01:45;98395.53;;;27.80;52.18
38880;BME280;25887;30.194;-97.880;2022-08-19T06:04:12;98396.47;;;27.79;52.10
38880;BME280;25887;30.194;-97.880;2022-08-19T06:06:44;98386.84;;;27.77;52.18
38880;BME280;25887;30.194;-97.880;2022-08-19T06:09:10;98385.03;;;27.78;52.13
38880;BME280;25887;30.194;-97.880;2022-08-19T06:11:45;98380.63;;;27.79;52.15
38880;BME280;25887;30.194;-97.880;2022-08-19T06:17:01;98378.19;;;27.75;52.31
38880;BME280;25887;30.194;-97.880;2022-08-19T06:19:28;98373.88;;;27.74;52.18
38880;BME280;25887;30.194;-97.880;2022-08-19T06:21:57;98371.22;;;27.74;52.24
38880;BME280;25887;30.194;-97.880;2022-08-19T06:24:24;98365.94;;;27.74;51.93
38880;BME280;25887;30.194;-97.880;2022-08-19T06:26:51;98358.97;;;27.73;52.32
38880;BME280;25887;30.194;-97.880;2022-08-19T06:29:18;98354.53;;;27.74;52.26
38880;BME280;25887;30.194;-97.880;2022-08-19T06:31:47;98358.16;;;27.73;52.22
38880;BME280;25887;30.194;-97.880;2022-08-19T06:34:15;98351.06;;;27.73;52.23
38880;BME280;25887;30.194;-97.880;2022-08-19T06:36:42;98351.19;;;27.72;51.91
38880;BME280;25887;30.194;-97.880;2022-08-19T06:39:12;98348.66;;;27.70;52.06
38880;BME280;25887;30.194;-97.880;2022-08-19T06:41:39;98341.66;;;27.69;52.01
38880;BME280;25887;30.194;-97.880;2022-08-19T06:44:06;98337.34;;;27.68;52.17
38880;BME280;25887;30.194;-97.880;2022-08-19T06:46:32;98336.50;;;27.68;52.47
38880;BME280;25887;30.194;-97.880;2022-08-19T06:48:58;98340.94;;;27.67;52.04
38880;BME280;25887;30.194;-97.880;2022-08-19T06:51:25;98338.38;;;27.66;52.13
38880;BME280;25887;30.194;-97.880;2022-08-19T06:53:52;98347.25;;;27.65;52.54
38880;BME280;25887;30.194;-97.880;2022-08-19T06:56:19;98350.00;;;27.63;52.46
38880;BME280;25887;30.194;-97.880;2022-08-19T06:58:46;98343.97;;;27.61;52.29
38880;BME280;25887;30.194;-97.880;2022-08-19T07:01:12;98354.53;;;27.61;52.57
38880;BME280;25887;30.194;-97.880;2022-08-19T07:04:03;98358.00;;;27.62;52.32
38880;BME280;25887;30.194;-97.880;2022-08-19T07:06:34;98347.56;;;27.60;52.49
38880;BME280;25887;30.194;-97.880;2022-08-19T07:09:00;98354.75;;;27.58;52.41
38880;BME280;25887;30.194;-97.880;2022-08-19T07:11:26;98338.91;;;27.58;52.31
38880;BME280;25887;30.194;-97.880;2022-08-19T07:13:52;98331.94;;;27.57;52.38
38880;BME280;25887;30.194;-97.880;2022-08-19T07:16:20;98332.97;;;27.55;52.29
38880;BME280;25887;30.194;-97.880;2022-08-19T07:18:47;98327.72;;;27.55;52.35
38880;BME280;25887;30.194;-97.880;2022-08-19T07:21:18;98323.38;;;27.54;52.61
38880;BME280;25887;30.194;-97.880;2022-08-19T07:23:44;98329.50;;;27.54;52.64
38880;BME280;25887;30.194;-97.880;2022-08-19T07:26:12;98324.34;;;27.53;52.76
38880;BME280;25887;30.194;-97.880;2022-08-19T07:28:52;98322.66;;;27.52;52.39
38880;BME280;25887;30.194;-97.880;2022-08-19T07:31:18;98313.06;;;27.51;52.84
38880;BME280;25887;30.194;-97.880;2022-08-19T07:33:45;98310.41;;;27.51;52.51
38880;BME280;25887;30.194;-97.880;2022-08-19T07:36:13;98300.69;;;27.51;52.49
38880;BME280;25887;30.194;-97.880;2022-08-19T07:38:43;98302.63;;;27.49;52.96
38880;BME280;25887;30.194;-97.880;2022-08-19T07:41:11;98305.97;;;27.51;52.81
38880;BME280;25887;30.194;-97.880;2022-08-19T07:43:38;98299.75;;;27.52;52.82
38880;BME280;25887;30.194;-97.880;2022-08-19T07:46:03;98298.19;;;27.49;52.75
38880;BME280;25887;30.194;-97.880;2022-08-19T07:48:29;98294.59;;;27.51;52.51
38880;BME280;25887;30.194;-97.880;2022-08-19T07:50:56;98294.69;;;27.49;52.53
38880;BME280;25887;30.194;-97.880;2022-08-19T07:53:22;98292.06;;;27.49;52.58
38880;BME280;25887;30.194;-97.880;2022-08-19T07:55:48;98298.28;;;27.48;52.77
38880;BME280;25887;30.194;-97.880;2022-08-19T07:58:15;98300.94;;;27.48;52.59
38880;BME280;25887;30.194;-97.880;2022-08-19T08:00:41;98299.22;;;27.47;52.60
38880;BME280;25887;30.194;-97.880;2022-08-19T08:03:07;98295.72;;;27.46;52.57
38880;BME280;25887;30.194;-97.880;2022-08-19T08:05:34;98295.84;;;27.45;52.66
38880;BME280;25887;30.194;-97.880;2022-08-19T08:08:18;98298.59;;;27.43;52.80
38880;BME280;25887;30.194;-97.880;2022-08-19T08:11:03;98304.00;;;27.42;53.01
38880;BME280;25887;30.194;-97.880;2022-08-19T08:13:29;98305.78;;;27.41;53.07
38880;BME280;25887;30.194;-97.880;2022-08-19T08:15:56;98302.31;;;27.41;52.94
38880;BME280;25887;30.194;-97.880;2022-08-19T08:18:25;98308.53;;;27.40;52.74
38880;BME280;25887;30.194;-97.880;2022-08-19T08:20:50;98302.50;;;27.38;52.96
38880;BME280;25887;30.194;-97.880;2022-08-19T08:23:16;98298.19;;;27.37;52.71
38880;BME280;25887;30.194;-97.880;2022-08-19T08:28:34;98286.91;;;27.35;52.92
38880;BME280;25887;30.194;-97.880;2022-08-19T08:31:00;98292.06;;;27.36;52.91
38880;BME280;25887;30.194;-97.880;2022-08-19T08:33:27;98291.22;;;27.36;52.84
38880;BME280;25887;30.194;-97.880;2022-08-19T08:35:53;98293.97;;;27.34;53.16
38880;BME280;25887;30.194;-97.880;2022-08-19T08:38:19;98292.16;;;27.35;52.85
38880;BME280;25887;30.194;-97.880;2022-08-19T08:40:46;98287.84;;;27.34;53.21
38880;BME280;25887;30.194;-97.880;2022-08-19T08:43:37;98299.25;;;27.34;53.02
38880;BME280;25887;30.194;-97.880;2022-08-19T08:46:05;98295.78;;;27.34;52.91
38880;BME280;25887;30.194;-97.880;2022-08-19T08:48:46;98295.78;;;27.34;52.89
38880;BME280;25887;30.194;-97.880;2022-08-19T08:51:22;98301.03;;;27.34;53.33
38880;BME280;25887;30.194;-97.880;2022-08-19T08:53:49;98304.63;;;27.33;52.97
38880;BME280;25887;30.194;-97.880;2022-08-19T08:59:04;98308.97;;;27.34;53.14
38880;BME280;25887;30.194;-97.880;2022-08-19T09:01:35;98310.75;;;27.33;53.10
38880;BME280;25887;30.194;-97.880;2022-08-19T09:04:02;98317.81;;;27.33;53.07
38880;BME280;25887;30.194;-97.880;2022-08-19T09:06:46;98310.88;;;27.32;53.40
38880;BME280;25887;30.194;-97.880;2022-08-19T09:09:20;98308.31;;;27.30;53.20
38880;BME280;25887;30.194;-97.880;2022-08-19T09:11:54;98313.59;;;27.30;53.39
38880;BME280;25887;30.194;-97.880;2022-08-19T09:16:47;98313.59;;;27.30;53.29
38880;BME280;25887;30.194;-97.880;2022-08-19T09:19:14;98312.84;;;27.28;53.44
38880;BME280;25887;30.194;-97.880;2022-08-19T09:21:42;98326.03;;;27.28;53.19
38880;BME280;25887;30.194;-97.880;2022-08-19T09:24:22;98326.88;;;27.29;53.28
38880;BME280;25887;30.194;-97.880;2022-08-19T09:26:48;98319.94;;;27.28;53.30
38880;BME280;25887;30.194;-97.880;2022-08-19T09:29:14;98319.94;;;27.28;53.31
38880;BME280;25887;30.194;-97.880;2022-08-19T09:31:40;98316.44;;;27.27;53.41
38880;BME280;25887;30.194;-97.880;2022-08-19T09:34:06;98313.81;;;27.27;53.61
38880;BME280;25887;30.194;-97.880;2022-08-19T09:36:32;98318.25;;;27.27;53.38
38880;BME280;25887;30.194;-97.880;2022-08-19T09:38:59;98320.88;;;27.27;53.19
38880;BME280;25887;30.194;-97.880;2022-08-19T09:41:27;98314.88;;;27.25;53.36
38880;BME280;25887;30.194;-97.880;2022-08-19T09:43:53;98319.94;;;27.28;53.41
38880;BME280;25887;30.194;-97.880;2022-08-19T09:46:24;98326.16;;;27.27;53.30
38880;BME280;25887;30.194;-97.880;2022-08-19T09:48:51;98318.25;;;27.27;53.59
38880;BME280;25887;30.194;-97.880;2022-08-19T09:51:20;98313.09;;;27.25;53.43
38880;BME280;25887;30.194;-97.880;2022-08-19T09:53:47;98311.28;;;27.26;53.49
38880;BME280;25887;30.194;-97.880;2022-08-19T09:56:21;98298.09;;;27.26;53.51
38880;BME280;25887;30.194;-97.880;2022-08-19T09:58:50;98311.41;;;27.24;53.42
38880;BME280;25887;30.194;-97.880;2022-08-19T10:01:17;98314.03;;;27.24;53.35
38880;BME280;25887;30.194;-97.880;2022-08-19T10:03:46;98307.88;;;27.24;53.34
38880;BME280;25887;30.194;-97.880;2022-08-19T10:06:12;98308.94;;;27.21;53.73
38880;BME280;25887;30.194;-97.880;2022-08-19T10:08:38;98305.47;;;27.20;53.32
38880;BME280;25887;30.194;-97.880;2022-08-19T10:11:05;98310.75;;;27.20;53.68
38880;BME280;25887;30.194;-97.880;2022-08-19T10:13:31;98307.38;;;27.18;53.67
38880;BME280;25887;30.194;-97.880;2022-08-19T10:16:05;98301.16;;;27.19;53.72
38880;BME280;25887;30.194;-97.880;2022-08-19T10:18:31;98306.44;;;27.19;53.59
38880;BME280;25887;30.194;-97.880;2022-08-19T10:21:04;98310.75;;;27.20;53.45
38880;BME280;25887;30.194;-97.880;2022-08-19T10:23:34;98305.59;;;27.19;53.72
38880;BME280;25887;30.194;-97.880;2022-08-19T10:26:12;98311.69;;;27.19;53.57
38880;BME280;25887;30.194;-97.880;2022-08-19T10:28:38;98304.63;;;27.20;53.87
38880;BME280;25887;30.194;-97.880;2022-08-19T10:31:05;98296.72;;;27.20;53.64
38880;BME280;25887;30.194;-97.880;2022-08-19T10:33:31;98297.56;;;27.20;53.73
38880;BME280;25887;30.194;-97.880;2022-08-19T10:36:01;98297.56;;;27.20;53.92
38880;BME280;25887;30.194;-97.880;2022-08-19T10:38:27;98297.56;;;27.20;53.69
38880;BME280;25887;30.194;-97.880;2022-08-19T10:40:54;98287.00;;;27.20;53.56
38880;BME280;25887;30.194;-97.880;2022-08-19T10:43:20;98295.75;;;27.21;53.85
38880;BME280;25887;30.194;-97.880;2022-08-19T10:45:51;98292.28;;;27.20;53.90
38880;BME280;25887;30.194;-97.880;2022-08-19T10:48:19;98308.94;;;27.21;53.68
38880;BME280;25887;30.194;-97.880;2022-08-19T10:50:44;98302.00;;;27.20;53.79
38880;BME280;25887;30.194;-97.880;2022-08-19T10:53:28;98302.84;;;27.20;53.79
38880;BME280;25887;30.194;-97.880;2022-08-19T10:55:54;98300.19;;;27.20;53.60
38880;BME280;25887;30.194;-97.880;2022-08-19T10:58:43;98303.69;;;27.21;53.64
38880;BME280;25887;30.194;-97.880;2022-08-19T11:01:09;98292.28;;;27.20;54.08
38880;BME280;25887;30.194;-97.880;2022-08-19T11:03:35;98302.84;;;27.20;53.92
38880;BME280;25887;30.194;-97.880;2022-08-19T11:06:07;98299.47;;;27.18;53.64
38880;BME280;25887;30.194;-97.880;2022-08-19T11:08:34;98294.19;;;27.18;53.86
38880;BME280;25887;30.194;-97.880;2022-08-19T11:11:03;98288.91;;;27.18;53.91
38880;BME280;25887;30.194;-97.880;2022-08-19T11:13:33;98285.31;;;27.19;53.92
38880;BME280;25887;30.194;-97.880;2022-08-19T11:16:01;98298.50;;;27.19;53.62
38880;BME280;25887;30.194;-97.880;2022-08-19T11:18:27;98295.88;;;27.19;54.07
38880;BME280;25887;30.194;-97.880;2022-08-19T11:21:04;98304.63;;;27.20;53.96
38880;BME280;25887;30.194;-97.880;2022-08-19T11:23:30;98302.00;;;27.20;54.13
38880;BME280;25887;30.194;-97.880;2022-08-19T11:28:50;98313.38;;;27.20;53.99
38880;BME280;25887;30.194;-97.880;2022-08-19T11:31:20;98320.34;;;27.21;54.01
38880;BME280;25887;30.194;-97.880;2022-08-19T11:33:45;98314.22;;;27.21;53.97
38880;BME280;25887;30.194;-97.880;2022-08-19T11:36:12;98312.53;;;27.20;54.07
38880;BME280;25887;30.194;-97.880;2022-08-19T11:38:38;98314.34;;;27.19;54.08
38880;BME280;25887;30.194;-97.880;2022-08-19T11:41:05;98323.81;;;27.22;54.32
38880;BME280;25887;30.194;-97.880;2022-08-19T11:43:32;98322.13;;;27.21;54.01
38880;BME280;25887;30.194;-97.880;2022-08-19T11:46:11;98326.56;;;27.20;54.28
38880;BME280;25887;30.194;-97.880;2022-08-19T11:48:37;98318.66;;;27.20;53.99
38880;BME280;25887;30.194;-97.880;2022-08-19T11:51:04;98329.09;;;27.22;54.10
38880;BME280;25887;30.194;-97.880;2022-08-19T11:53:31;98321.28;;;27.20;54.16
38880;BME280;25887;30.194;-97.880;2022-08-19T11:56:12;98328.25;;;27.21;54.32
38880;BME280;25887;30.194;-97.880;2022-08-19T11:58:38;98332.69;;;27.21;54.34
38880;BME280;25887;30.194;-97.880;2022-08-19T12:01:13;98329.09;;;27.22;54.44
38880;BME280;25887;30.194;-97.880;2022-08-19T12:03:42;98327.31;;;27.23;54.30
38880;BME280;25887;30.194;-97.880;2022-08-19T12:06:12;98332.50;;;27.24;54.11
38880;BME280;25887;30.194;-97.880;2022-08-19T12:08:39;98332.50;;;27.24;54.02
38880;BME280;25887;30.194;-97.880;2022-08-19T12:11:04;98331.53;;;27.25;54.17
38880;BME280;25887;30.194;-97.880;2022-08-19T12:13:33;98334.06;;;27.27;54.19
38880;BME280;25887;30.194;-97.880;2022-08-19T12:15:59;98337.56;;;27.27;54.02
38880;BME280;25887;30.194;-97.880;2022-08-19T12:18:37;98333.97;;;27.28;54.37
38880;BME280;25887;30.194;-97.880;2022-08-19T12:21:02;98336.59;;;27.28;54.11
38880;BME280;25887;30.194;-97.880;2022-08-19T12:23:29;98335.75;;;27.28;54.46
38880;BME280;25887;30.194;-97.880;2022-08-19T12:25:54;98336.50;;;27.30;54.38
38880;BME280;25887;30.194;-97.880;2022-08-19T12:28:22;98338.16;;;27.31;54.53
38880;BME280;25887;30.194;-97.880;2022-08-19T12:30:49;98337.25;;;27.32;54.07
38880;BME280;25887;30.194;-97.880;2022-08-19T12:33:16;98344.22;;;27.33;54.19
38880;BME280;25887;30.194;-97.880;2022-08-19T12:35:44;98351.16;;;27.34;54.32
38880;BME280;25887;30.194;-97.880;2022-08-19T12:38:20;98363.41;;;27.35;54.26
38880;BME280;25887;30.194;-97.880;2022-08-19T12:40:49;98367.72;;;27.36;54.59
38880;BME280;25887;30.194;-97.880;2022-08-19T12:43:17;98373.75;;;27.38;54.48
38880;BME280;25887;30.194;-97.880;2022-08-19T12:45:43;98370.16;;;27.39;54.46
38880;BME280;25887;30.194;-97.880;2022-08-19T12:48:10;98378.81;;;27.41;54.40
38880;BME280;25887;30.194;-97.880;2022-08-19T12:50:36;98380.50;;;27.42;54.41
38880;BME280;25887;30.194;-97.880;2022-08-19T12:53:04;98384.72;;;27.44;54.59
38880;BME280;25887;30.194;-97.880;2022-08-19T12:55:30;98392.63;;;27.44;54.73
38880;BME280;25887;30.194;-97.880;2022-08-19T12:58:08;98392.53;;;27.46;54.45
38880;BME280;25887;30.194;-97.880;2022-08-19T13:00:34;98394.22;;;27.47;54.66
38880;BME280;25887;30.194;-97.880;2022-08-19T13:03:00;98393.28;;;27.48;54.46
38880;BME280;25887;30.194;-97.880;2022-08-19T13:05:27;98391.50;;;27.48;54.61
38880;BME280;25887;30.194;-97.880;2022-08-19T13:07:56;98388.00;;;27.48;54.54